sensor_id;sensor_type;location;lat;lon;timestamp;P1;durP1;ratioP1;P2;durP2;ratioP2
43823;SDS011;29470;53.550;9.926;2022-07-29T00:01:57;5.50;;;2.00;;
43823;SDS011;29470;53.550;9.926;2022-07-29T00:07:00;3.40;;;1.70;;
43823;SDS011;29470;53.550;9.926;2022-07-29T00:12:05;3.60;;;1.75;;
43823;SDS011;29470;53.550;9.926;2022-07-29T00:17:10;3.95;;;1.70;;
43823;SDS011;29470;53.550;9.926;2022-07-29T00:22:19;4.15;;;1.70;;
43823;SDS011;29470;53.550;9.926;2022-07-29T00:27:23;5.75;;;1.90;;
43823;SDS011;29470;53.550;9.926;2022-07-29T00:32:26;3.92;;;1.70;;
43823;SDS011;29470;53.550;9.926;2022-07-29T00:37:29;4.55;;;1.80;;
43823;SDS011;29470;53.550;9.926;2022-07-29T00:42:42;5.65;;;2.65;;
43823;SDS011;29470;53.550;9.926;2022-07-29T00:47:45;4.15;;;1.77;;
43823;SDS011;29470;53.550;9.926;2022-07-29T00:52:48;5.18;;;1.70;;
43823;SDS011;29470;53.550;9.926;2022-07-29T00:57:53;2.72;;;1.70;;
43823;SDS011;29470;53.550;9.926;2022-07-29T01:02:56;3.63;;;1.80;;
43823;SDS011;29470;53.550;9.926;2022-07-29T01:07:59;3.78;;;1.48;;
43823;SDS011;29470;53.550;9.926;2022-07-29T01:13:05;5.45;;;1.73;;
43823;SDS011;29470;53.550;9.926;2022-07-29T01:18:11;4.82;;;1.95;;
43823;SDS011;29470;53.550;9.926;2022-07-29T01:23:28;4.07;;;2.00;;
43823;SDS011;29470;53.550;9.926;2022-07-29T01:28:58;4.63;;;2.08;;
43823;SDS011;29470;53.550;9.926;2022-07-29T01:34:09;5.65;;;2.05;;
43823;SDS011;29470;53.550;9.926;2022-07-29T01:39:19;4.72;;;1.98;;
43823;SDS011;29470;53.550;9.926;2022-07-29T01:44:32;5.07;;;2.10;;
43823;SDS011;29470;53.550;9.926;2022-07-29T01:49:41;2.80;;;1.60;;
43823;SDS011;29470;53.550;9.926;2022-07-29T01:54:50;4.22;;;2.00;;
43823;SDS011;29470;53.550;9.926;2022-07-29T01:59:58;7.63;;;2.15;;
43823;SDS011;29470;53.550;9.926;2022-07-29T02:05:14;4.85;;;1.90;;
43823;SDS011;29470;53.550;9.926;2022-07-29T02:10:21;4.35;;;2.00;;
43823;SDS011;29470;53.550;9.926;2022-07-29T02:15:28;5.95;;;2.00;;
43823;SDS011;29470;53.550;9.926;2022-07-29T02:20:34;5.32;;;2.10;;
43823;SDS011;29470;53.550;9.926;2022-07-29T02:25:40;5.72;;;2.00;;
43823;SDS011;29470;53.550;9.926;2022-07-29T02:30:46;4.82;;;2.10;;
43823;SDS011;29470;53.550;9.926;2022-07-29T02:35:52;12.23;;;2.65;;
43823;SDS011;29470;53.550;9.926;2022-07-29T02:40:56;4.97;;;2.20;;
43823;SDS011;29470;53.550;9.926;2022-07-29T02:46:03;4.90;;;2.47;;
43823;SDS011;29470;53.550;9.926;2022-07-29T02:51:32;4.25;;;2.00;;
43823;SDS011;29470;53.550;9.926;2022-07-29T02:56:45;5.80;;;2.15;;
43823;SDS011;29470;53.550;9.926;2022-07-29T03:01:51;4.75;;;2.20;;
43823;SDS011;29470;53.550;9.926;2022-07-29T03:06:59;6.50;;;2.15;;
43823;SDS011;29470;53.550;9.926;2022-07-29T03:12:09;4.53;;;2.40;;
43823;SDS011;29470;53.550;9.926;2022-07-29T03:17:15;6.53;;;2.58;;
43823;SDS011;29470;53.550;9.926;2022-07-29T03:22:18;5.20;;;2.17;;
43823;SDS011;29470;53.550;9.926;2022-07-29T03:27:21;5.47;;;2.45;;
43823;SDS011;29470;53.550;9.926;2022-07-29T03:32:26;4.38;;;2.13;;
43823;SDS011;29470;53.550;9.926;2022-07-29T03:37:30;5.82;;;2.33;;
43823;SDS011;29470;53.550;9.926;2022-07-29T03:42:35;4.22;;;2.00;;
43823;SDS011;29470;53.550;9.926;2022-07-29T03:47:44;7.32;;;2.88;;
43823;SDS011;29470;53.550;9.926;2022-07-29T03:52:56;4.63;;;2.10;;
43823;SDS011;29470;53.550;9.926;2022-07-29T03:57:59;3.92;;;2.17;;
43823;SDS011;29470;53.550;9.926;2022-07-29T04:03:05;7.95;;;2.00;;
43823;SDS011;29470;53.550;9.926;2022-07-29T04:08:12;4.30;;;2.15;;
43823;SDS011;29470;53.550;9.926;2022-07-29T04:13:14;6.13;;;2.58;;
43823;SDS011;29470;53.550;9.926;2022-07-29T04:18:18;4.20;;;2.83;;
43823;SDS011;29470;53.550;9.926;2022-07-29T04:23:22;5.20;;;2.50;;
43823;SDS011;29470;53.550;9.926;2022-07-29T04:28:24;3.75;;;2.13;;
43823;SDS011;29470;53.550;9.926;2022-07-29T04:33:29;6.47;;;2.33;;
43823;SDS011;29470;53.550;9.926;2022-07-29T04:38:31;5.75;;;2.30;;
43823;SDS011;29470;53.550;9.926;2022-07-29T04:43:34;6.95;;;2.40;;
43823;SDS011;29470;53.550;9.926;2022-07-29T04:48:39;6.57;;;2.10;;
43823;SDS011;29470;53.550;9.926;2022-07-29T04:53:42;8.93;;;2.63;;
43823;SDS011;29470;53.550;9.926;2022-07-29T04:58:45;5.75;;;2.22;;
43823;SDS011;29470;53.550;9.926;2022-07-29T05:03:49;5.72;;;2.22;;
43823;SDS011;29470;53.550;9.926;2022-07-29T05:08:56;7.50;;;2.42;;
43823;SDS011;29470;53.550;9.926;2022-07-29T05:13:59;6.40;;;2.42;;
43823;SDS011;29470;53.550;9.926;2022-07-29T05:19:03;8.15;;;2.25;;
43823;SDS011;29470;53.550;9.926;2022-07-29T05:24:11;5.70;;;2.33;;
43823;SDS011;29470;53.550;9.926;2022-07-29T05:29:16;3.90;;;2.15;;
43823;SDS011;29470;53.550;9.926;2022-07-29T05:34:40;5.80;;;2.53;;
43823;SDS011;29470;53.550;9.926;2022-07-29T05:39:51;4.50;;;2.38;;
43823;SDS011;29470;53.550;9.926;2022-07-29T05:44:57;7.18;;;2.88;;
43823;SDS011;29470;53.550;9.926;2022-07-29T05:50:02;6.13;;;2.08;;
43823;SDS011;29470;53.550;9.926;2022-07-29T05:55:05;5.97;;;2.28;;
43823;SDS011;29470;53.550;9.926;2022-07-29T06:00:09;5.55;;;2.00;;
43823;SDS011;29470;53.550;9.926;2022-07-29T06:05:14;6.68;;;2.30;;
43823;SDS011;29470;53.550;9.926;2022-07-29T06:10:17;8.35;;;2.28;;
43823;SDS011;29470;53.550;9.926;2022-07-29T06:15:24;4.50;;;2.03;;
43823;SDS011;29470;53.550;9.926;2022-07-29T06:20:28;5.90;;;2.20;;
43823;SDS011;29470;53.550;9.926;2022-07-29T06:25:32;6.72;;;2.63;;
43823;SDS011;29470;53.550;9.926;2022-07-29T06:30:36;5.05;;;2.20;;
43823;SDS011;29470;53.550;9.926;2022-07-29T06:35:40;4.10;;;2.20;;
43823;SDS011;29470;53.550;9.926;2022-07-29T06:40:55;5.90;;;2.25;;
43823;SDS011;29470;53.550;9.926;2022-07-29T06:46:06;5.13;;;2.67;;
43823;SDS011;29470;53.550;9.926;2022-07-29T06:51:11;3.75;;;2.10;;
43823;SDS011;29470;53.550;9.926;2022-07-29T06:56:14;4.85;;;2.38;;
43823;SDS011;29470;53.550;9.926;2022-07-29T07:01:17;5.10;;;2.30;;
43823;SDS011;29470;53.550;9.926;2022-07-29T07:06:23;4.18;;;2.17;;
43823;SDS011;29470;53.550;9.926;2022-07-29T07:11:26;7.20;;;2.30;;
43823;SDS011;29470;53.550;9.926;2022-07-29T07:16:29;4.28;;;2.17;;
43823;SDS011;29470;53.550;9.926;2022-07-29T07:21:34;7.13;;;2.63;;
43823;SDS011;29470;53.550;9.926;2022-07-29T07:26:37;8.82;;;2.40;;
43823;SDS011;29470;53.550;9.926;2022-07-29T07:31:41;8.15;;;2.50;;
43823;SDS011;29470;53.550;9.926;2022-07-29T07:36:45;6.35;;;2.50;;
43823;SDS011;29470;53.550;9.926;2022-07-29T07:41:48;5.78;;;2.38;;
43823;SDS011;29470;53.550;9.926;2022-07-29T07:46:51;6.00;;;2.20;;
43823;SDS011;29470;53.550;9.926;2022-07-29T07:51:56;7.90;;;2.55;;
43823;SDS011;29470;53.550;9.926;2022-07-29T07:56:59;4.65;;;2.10;;
43823;SDS011;29470;53.550;9.926;2022-07-29T08:02:02;6.00;;;2.20;;
43823;SDS011;29470;53.550;9.926;2022-07-29T08:07:06;6.78;;;2.10;;
43823;SDS011;29470;53.550;9.926;2022-07-29T08:12:10;3.85;;;1.92;;
43823;SDS011;29470;53.550;9.926;2022-07-29T08:17:13;5.95;;;2.38;;
43823;SDS011;29470;53.550;9.926;2022-07-29T08:22:17;3.45;;;2.00;;
43823;SDS011;29470;53.550;9.926;2022-07-29T08:27:20;7.13;;;2.35;;
43823;SDS011;29470;53.550;9.926;2022-07-29T08:32:43;7.18;;;2.08;;
43823;SDS011;29470;53.550;9.926;2022-07-29T08:37:57;5.45;;;2.33;;
43823;SDS011;29470;53.550;9.926;2022-07-29T08:43:03;9.18;;;4.55;;
43823;SDS011;29470;53.550;9.926;2022-07-29T08:48:08;6.90;;;2.45;;
43823;SDS011;29470;53.550;9.926;2022-07-29T08:53:12;4.00;;;1.98;;
43823;SDS011;29470;53.550;9.926;2022-07-29T08:58:17;6.20;;;2.50;;
43823;SDS011;29470;53.550;9.926;2022-07-29T09:08:32;8.77;;;2.30;;
43823;SDS011;29470;53.550;9.926;2022-07-29T09:13:35;4.80;;;2.78;;
43823;SDS011;29470;53.550;9.926;2022-07-29T09:18:40;4.78;;;2.13;;
43823;SDS011;29470;53.550;9.926;2022-07-29T09:29:13;7.22;;;2.10;;
43823;SDS011;29470;53.550;9.926;2022-07-29T09:34:20;6.60;;;2.20;;
43823;SDS011;29470;53.550;9.926;2022-07-29T09:39:28;4.75;;;2.13;;
43823;SDS011;29470;53.550;9.926;2022-07-29T09:44:44;7.15;;;2.00;;
43823;SDS011;29470;53.550;9.926;2022-07-29T09:49:50;6.82;;;2.20;;
43823;SDS011;29470;53.550;9.926;2022-07-29T09:55:04;5.05;;;2.20;;
43823;SDS011;29470;53.550;9.926;2022-07-29T10:00:10;5.97;;;2.20;;
43823;SDS011;29470;53.550;9.926;2022-07-29T10:05:16;4.55;;;1.90;;
43823;SDS011;29470;53.550;9.926;2022-07-29T10:10:22;4.95;;;2.15;;
43823;SDS011;29470;53.550;9.926;2022-07-29T10:15:30;4.30;;;1.63;;
43823;SDS011;29470;53.550;9.926;2022-07-29T10:20:35;3.33;;;1.80;;
43823;SDS011;29470;53.550;9.926;2022-07-29T10:25:38;4.97;;;2.40;;
43823;SDS011;29470;53.550;9.926;2022-07-29T10:30:48;4.90;;;2.00;;
43823;SDS011;29470;53.550;9.926;2022-07-29T10:36:02;3.23;;;1.87;;
43823;SDS011;29470;53.550;9.926;2022-07-29T10:47:00;7.05;;;1.98;;
43823;SDS011;29470;53.550;9.926;2022-07-29T10:52:04;5.00;;;2.10;;
43823;SDS011;29470;53.550;9.926;2022-07-29T10:57:12;4.80;;;1.98;;
43823;SDS011;29470;53.550;9.926;2022-07-29T11:02:45;3.00;;;1.55;;
43823;SDS011;29470;53.550;9.926;2022-07-29T11:13:45;3.83;;;1.52;;
43823;SDS011;29470;53.550;9.926;2022-07-29T11:24:31;6.07;;;1.88;;
43823;SDS011;29470;53.550;9.926;2022-07-29T11:29:35;4.85;;;1.80;;
43823;SDS011;29470;53.550;9.926;2022-07-29T11:34:45;4.38;;;1.92;;
43823;SDS011;29470;53.550;9.926;2022-07-29T11:40:09;4.32;;;1.60;;
43823;SDS011;29470;53.550;9.926;2022-07-29T11:45:22;4.72;;;2.13;;
43823;SDS011;29470;53.550;9.926;2022-07-29T11:50:46;3.08;;;1.70;;
43823;SDS011;29470;53.550;9.926;2022-07-29T11:55:50;4.40;;;1.90;;
43823;SDS011;29470;53.550;9.926;2022-07-29T12:00:58;3.17;;;1.60;;
43823;SDS011;29470;53.550;9.926;2022-07-29T12:06:12;4.77;;;1.53;;
43823;SDS011;29470;53.550;9.926;2022-07-29T12:11:18;4.68;;;1.58;;
43823;SDS011;29470;53.550;9.926;2022-07-29T12:16:33;5.43;;;1.80;;
43823;SDS011;29470;53.550;9.926;2022-07-29T12:21:44;4.43;;;1.80;;
43823;SDS011;29470;53.550;9.926;2022-07-29T12:26:57;4.03;;;1.88;;
43823;SDS011;29470;53.550;9.926;2022-07-29T12:32:03;3.25;;;1.70;;
43823;SDS011;29470;53.550;9.926;2022-07-29T12:37:21;5.43;;;1.83;;
43823;SDS011;29470;53.550;9.926;2022-07-29T12:48:10;3.83;;;1.65;;
43823;SDS011;29470;53.550;9.926;2022-07-29T12:53:15;3.92;;;1.92;;
43823;SDS011;29470;53.550;9.926;2022-07-29T12:58:27;4.95;;;1.90;;
43823;SDS011;29470;53.550;9.926;2022-07-29T13:03:48;3.70;;;1.98;;
43823;SDS011;29470;53.550;9.926;2022-07-29T13:09:00;4.38;;;1.90;;
43823;SDS011;29470;53.550;9.926;2022-07-29T13:14:04;6.35;;;2.17;;
43823;SDS011;29470;53.550;9.926;2022-07-29T13:19:08;3.90;;;1.60;;
43823;SDS011;29470;53.550;9.926;2022-07-29T13:24:13;5.53;;;2.00;;
43823;SDS011;29470;53.550;9.926;2022-07-29T13:29:20;7.15;;;1.60;;
43823;SDS011;29470;53.550;9.926;2022-07-29T13:34:23;3.75;;;1.50;;
43823;SDS011;29470;53.550;9.926;2022-07-29T13:39:28;5.50;;;1.77;;
43823;SDS011;29470;53.550;9.926;2022-07-29T13:44:31;4.70;;;1.77;;
43823;SDS011;29470;53.550;9.926;2022-07-29T13:49:34;5.38;;;1.80;;
43823;SDS011;29470;53.550;9.926;2022-07-29T13:54:39;7.75;;;2.10;;
43823;SDS011;29470;53.550;9.926;2022-07-29T13:59:43;3.47;;;1.95;;
43823;SDS011;29470;53.550;9.926;2022-07-29T14:04:50;5.00;;;1.92;;
43823;SDS011;29470;53.550;9.926;2022-07-29T14:09:55;7.68;;;2.17;;
43823;SDS011;29470;53.550;9.926;2022-07-29T14:14:58;5.72;;;2.00;;
43823;SDS011;29470;53.550;9.926;2022-07-29T14:20:00;5.05;;;2.28;;
43823;SDS011;29470;53.550;9.926;2022-07-29T14:25:06;5.60;;;2.20;;
43823;SDS011;29470;53.550;9.926;2022-07-29T14:30:15;8.02;;;1.95;;
43823;SDS011;29470;53.550;9.926;2022-07-29T14:35:18;7.85;;;2.20;;
43823;SDS011;29470;53.550;9.926;2022-07-29T14:40:23;3.97;;;2.25;;
43823;SDS011;29470;53.550;9.926;2022-07-29T14:45:27;5.97;;;2.25;;
43823;SDS011;29470;53.550;9.926;2022-07-29T14:50:30;3.90;;;2.00;;
43823;SDS011;29470;53.550;9.926;2022-07-29T14:55:34;4.10;;;2.05;;
43823;SDS011;29470;53.550;9.926;2022-07-29T15:00:37;6.07;;;2.15;;
43823;SDS011;29470;53.550;9.926;2022-07-29T15:05:40;5.35;;;1.88;;
43823;SDS011;29470;53.550;9.926;2022-07-29T15:10:45;5.22;;;1.95;;
43823;SDS011;29470;53.550;9.926;2022-07-29T15:15:48;2.75;;;2.00;;
43823;SDS011;29470;53.550;9.926;2022-07-29T15:20:51;3.60;;;1.90;;
43823;SDS011;29470;53.550;9.926;2022-07-29T15:25:55;5.22;;;2.40;;
43823;SDS011;29470;53.550;9.926;2022-07-29T15:30:58;3.58;;;1.90;;
43823;SDS011;29470;53.550;9.926;2022-07-29T15:36:01;6.00;;;2.30;;
43823;SDS011;29470;53.550;9.926;2022-07-29T15:41:07;6.60;;;2.13;;
43823;SDS011;29470;53.550;9.926;2022-07-29T15:46:12;5.55;;;2.60;;
43823;SDS011;29470;53.550;9.926;2022-07-29T15:51:33;4.68;;;2.00;;
43823;SDS011;29470;53.550;9.926;2022-07-29T15:56:37;6.45;;;1.98;;
43823;SDS011;29470;53.550;9.926;2022-07-29T16:01:40;7.28;;;2.22;;
43823;SDS011;29470;53.550;9.926;2022-07-29T16:06:43;7.43;;;2.03;;
43823;SDS011;29470;53.550;9.926;2022-07-29T16:11:49;6.68;;;2.53;;
43823;SDS011;29470;53.550;9.926;2022-07-29T16:16:53;5.40;;;2.30;;
43823;SDS011;29470;53.550;9.926;2022-07-29T16:21:57;8.38;;;2.45;;
43823;SDS011;29470;53.550;9.926;2022-07-29T16:27:02;5.88;;;2.20;;
43823;SDS011;29470;53.550;9.926;2022-07-29T16:32:05;7.60;;;2.55;;
43823;SDS011;29470;53.550;9.926;2022-07-29T16:37:08;5.10;;;2.03;;
43823;SDS011;29470;53.550;9.926;2022-07-29T16:42:12;6.97;;;1.95;;
43823;SDS011;29470;53.550;9.926;2022-07-29T16:47:35;5.28;;;1.92;;
43823;SDS011;29470;53.550;9.926;2022-07-29T16:52:38;6.40;;;2.30;;
43823;SDS011;29470;53.550;9.926;2022-07-29T16:57:42;6.47;;;2.15;;
43823;SDS011;29470;53.550;9.926;2022-07-29T17:02:45;7.85;;;2.28;;
43823;SDS011;29470;53.550;9.926;2022-07-29T17:07:48;6.65;;;2.65;;
43823;SDS011;29470;53.550;9.926;2022-07-29T17:12:53;9.20;;;3.10;;
43823;SDS011;29470;53.550;9.926;2022-07-29T17:17:56;7.22;;;2.65;;
43823;SDS011;29470;53.550;9.926;2022-07-29T17:22:59;7.80;;;2.65;;
43823;SDS011;29470;53.550;9.926;2022-07-29T17:28:03;6.68;;;2.30;;
43823;SDS011;29470;53.550;9.926;2022-07-29T17:33:06;4.35;;;2.15;;
43823;SDS011;29470;53.550;9.926;2022-07-29T17:38:09;5.22;;;1.83;;
43823;SDS011;29470;53.550;9.926;2022-07-29T17:43:13;7.10;;;2.20;;
43823;SDS011;29470;53.550;9.926;2022-07-29T17:48:16;7.32;;;2.17;;
43823;SDS011;29470;53.550;9.926;2022-07-29T17:53:19;5.35;;;2.25;;
43823;SDS011;29470;53.550;9.926;2022-07-29T17:58:23;9.60;;;2.70;;
43823;SDS011;29470;53.550;9.926;2022-07-29T18:03:26;5.50;;;2.22;;
43823;SDS011;29470;53.550;9.926;2022-07-29T18:08:29;6.90;;;2.30;;
43823;SDS011;29470;53.550;9.926;2022-07-29T18:13:33;6.25;;;2.20;;
43823;SDS011;29470;53.550;9.926;2022-07-29T18:18:37;7.93;;;2.53;;
43823;SDS011;29470;53.550;9.926;2022-07-29T18:23:39;6.78;;;2.03;;
43823;SDS011;29470;53.550;9.926;2022-07-29T18:28:44;6.45;;;2.10;;
43823;SDS011;29470;53.550;9.926;2022-07-29T18:33:47;6.10;;;2.30;;
43823;SDS011;29470;53.550;9.926;2022-07-29T18:38:50;5.10;;;2.80;;
43823;SDS011;29470;53.550;9.926;2022-07-29T18:43:54;5.45;;;2.40;;
43823;SDS011;29470;53.550;9.926;2022-07-29T18:48:57;5.53;;;2.05;;
43823;SDS011;29470;53.550;9.926;2022-07-29T18:54:00;6.72;;;2.30;;
43823;SDS011;29470;53.550;9.926;2022-07-29T18:59:05;6.18;;;2.35;;
43823;SDS011;29470;53.550;9.926;2022-07-29T19:04:08;8.82;;;2.70;;
43823;SDS011;29470;53.550;9.926;2022-07-29T19:09:11;8.50;;;2.50;;
43823;SDS011;29470;53.550;9.926;2022-07-29T19:14:15;7.30;;;2.47;;
43823;SDS011;29470;53.550;9.926;2022-07-29T19:19:18;6.25;;;2.22;;
43823;SDS011;29470;53.550;9.926;2022-07-29T19:24:21;5.70;;;2.60;;
43823;SDS011;29470;53.550;9.926;2022-07-29T19:29:25;4.03;;;2.45;;
43823;SDS011;29470;53.550;9.926;2022-07-29T19:34:28;4.25;;;2.20;;
43823;SDS011;29470;53.550;9.926;2022-07-29T19:39:31;6.70;;;2.17;;
43823;SDS011;29470;53.550;9.926;2022-07-29T19:44:37;5.78;;;2.50;;
43823;SDS011;29470;53.550;9.926;2022-07-29T19:49:40;8.77;;;3.13;;
43823;SDS011;29470;53.550;9.926;2022-07-29T19:54:42;6.40;;;3.17;;
43823;SDS011;29470;53.550;9.926;2022-07-29T19:59:47;5.28;;;2.85;;
43823;SDS011;29470;53.550;9.926;2022-07-29T20:04:50;7.53;;;3.40;;
43823;SDS011;29470;53.550;9.926;2022-07-29T20:09:53;7.25;;;2.78;;
43823;SDS011;29470;53.550;9.926;2022-07-29T20:14:58;7.93;;;3.03;;
43823;SDS011;29470;53.550;9.926;2022-07-29T20:20:01;6.70;;;3.00;;
43823;SDS011;29470;53.550;9.926;2022-07-29T20:25:05;8.50;;;2.30;;
43823;SDS011;29470;53.550;9.926;2022-07-29T20:30:11;6.45;;;2.55;;
43823;SDS011;29470;53.550;9.926;2022-07-29T20:35:14;4.70;;;2.30;;
43823;SDS011;29470;53.550;9.926;2022-07-29T20:40:20;5.13;;;2.50;;
43823;SDS011;29470;53.550;9.926;2022-07-29T20:45:24;4.80;;;2.58;;
43823;SDS011;29470;53.550;9.926;2022-07-29T20:50:27;8.93;;;3.13;;
43823;SDS011;29470;53.550;9.926;2022-07-29T20:55:30;5.15;;;2.50;;
43823;SDS011;29470;53.550;9.926;2022-07-29T21:00:34;7.47;;;2.55;;
43823;SDS011;29470;53.550;9.926;2022-07-29T21:05:37;6.70;;;2.88;;
43823;SDS011;29470;53.550;9.926;2022-07-29T21:10:44;9.30;;;2.95;;
43823;SDS011;29470;53.550;9.926;2022-07-29T21:15:48;7.78;;;2.67;;
43823;SDS011;29470;53.550;9.926;2022-07-29T21:20:52;6.53;;;2.83;;
43823;SDS011;29470;53.550;9.926;2022-07-29T21:25:55;9.52;;;3.20;;
43823;SDS011;29470;53.550;9.926;2022-07-29T21:31:00;8.93;;;3.38;;
43823;SDS011;29470;53.550;9.926;2022-07-29T21:36:06;5.85;;;2.78;;
43823;SDS011;29470;53.550;9.926;2022-07-29T21:41:30;6.63;;;2.92;;
43823;SDS011;29470;53.550;9.926;2022-07-29T21:46:34;7.28;;;2.97;;
43823;SDS011;29470;53.550;9.926;2022-07-29T21:51:37;6.78;;;3.13;;
43823;SDS011;29470;53.550;9.926;2022-07-29T21:56:40;6.93;;;3.17;;
43823;SDS011;29470;53.550;9.926;2022-07-29T22:01:52;5.35;;;2.80;;
43823;SDS011;29470;53.550;9.926;2022-07-29T22:06:55;5.25;;;3.10;;
43823;SDS011;29470;53.550;9.926;2022-07-29T22:12:00;5.20;;;2.92;;
43823;SDS011;29470;53.550;9.926;2022-07-29T22:17:04;6.30;;;3.15;;
43823;SDS011;29470;53.550;9.926;2022-07-29T22:22:07;8.50;;;3.63;;
43823;SDS011;29470;53.550;9.926;2022-07-29T22:27:10;5.22;;;3.03;;
43823;SDS011;29470;53.550;9.926;2022-07-29T22:32:15;6.38;;;2.65;;
43823;SDS011;29470;53.550;9.926;2022-07-29T22:37:18;7.65;;;3.15;;
43823;SDS011;29470;53.550;9.926;2022-07-29T22:42:21;8.68;;;3.65;;
43823;SDS011;29470;53.550;9.926;2022-07-29T22:47:25;9.70;;;3.47;;
43823;SDS011;29470;53.550;9.926;2022-07-29T22:52:48;8.48;;;3.53;;
43823;SDS011;29470;53.550;9.926;2022-07-29T22:57:51;5.53;;;3.05;;
43823;SDS011;29470;53.550;9.926;2022-07-29T23:02:55;6.72;;;3.30;;
43823;SDS011;29470;53.550;9.926;2022-07-29T23:07:58;7.40;;;3.40;;
43823;SDS011;29470;53.550;9.926;2022-07-29T23:13:01;7.10;;;3.20;;
43823;SDS011;29470;53.550;9.926;2022-07-29T23:18:06;7.20;;;3.20;;
43823;SDS011;29470;53.550;9.926;2022-07-29T23:23:08;8.75;;;3.47;;
43823;SDS011;29470;53.550;9.926;2022-07-29T23:28:11;8.48;;;3.60;;
43823;SDS011;29470;53.550;9.926;2022-07-29T23:33:16;6.25;;;2.92;;
43823;SDS011;29470;53.550;9.926;2022-07-29T23:38:19;7.15;;;3.15;;
43823;SDS011;29470;53.550;9.926;2022-07-29T23:43:22;11.02;;;3.53;;
43823;SDS011;29470;53.550;9.926;2022-07-29T23:48:26;7.93;;;3.50;;
43823;SDS011;29470;53.550;9.926;2022-07-29T23:53:29;5.05;;;3.25;;
43823;SDS011;29470;53.550;9.926;2022-07-29T23:58:32;5.95;;;2.80;;
